Time;durP1;ratioP1;P1;durP2;ratioP2;P2;SDS_P1;SDS_P2;PMS_P1;PMS_P2;Temp;Humidity;BMP_temperature;BMP_pressure;BME280_temperature;BME280_humidity;BME280_pressure;Samples;Min_cycle;Max_cycle;Signal;HPM_P1;HPM_P2
2023/08/12 00:01:52;;;;;;;10.68;4.57;;;;;;;;;;5058670;28;20388;-84
2023/08/12 00:04:19;;;;;;;6.38;3.80;;;;;;;;;;5098566;28;20036;-84
2023/08/12 00:06:45;;;;;;;10.75;4.13;;;;;;;;;;5081779;28;20044;-84
2023/08/12 00:09:15;;;;;;;8.15;4.07;;;;;;;;;;5057556;28;20048;-85
2023/08/12 00:11:41;;;;;;;10.85;4.63;;;;;;;;;;5091268;28;20096;-84
2023/08/12 00:14:07;;;;;;;9.57;4.43;;;;;;;;;;5094202;28;20127;-83
2023/08/12 00:16:33;;;;;;;9.43;4.25;;;;;;;;;;5083326;28;20047;-84
2023/08/12 00:19:00;;;;;;;9.00;4.57;;;;;;;;;;5100942;28;20047;-84
2023/08/12 00:21:26;;;;;;;8.45;3.97;;;;;;;;;;5094199;28;20511;-84
2023/08/12 00:23:53;;;;;;;9.02;4.35;;;;;;;;;;5095647;28;20464;-85
2023/08/12 00:26:19;;;;;;;9.77;4.00;;;;;;;;;;5093920;28;20140;-84
2023/08/12 00:28:45;;;;;;;7.97;4.10;;;;;;;;;;5078426;28;20050;-84
2023/08/12 00:31:11;;;;;;;10.80;4.43;;;;;;;;;;5093879;28;20044;-84
2023/08/12 00:33:37;;;;;;;10.15;4.22;;;;;;;;;;5073340;28;20040;-84
2023/08/12 00:36:03;;;;;;;8.55;4.20;;;;;;;;;;5063980;28;20039;-84
2023/08/12 00:38:29;;;;;;;9.57;3.90;;;;;;;;;;5078658;28;20048;-84
2023/08/12 00:40:55;;;;;;;7.57;4.30;;;;;;;;;;5090513;28;20453;-84
2023/08/12 00:43:21;;;;;;;6.40;3.88;;;;;;;;;;5075981;28;20130;-84
2023/08/12 00:45:49;;;;;;;8.75;3.97;;;;;;;;;;5097677;28;20422;-84
2023/08/12 00:48:15;;;;;;;7.03;3.63;;;;;;;;;;5095041;28;20048;-83
2023/08/12 00:50:42;;;;;;;8.13;3.40;;;;;;;;;;5083533;28;20105;-83
2023/08/12 00:53:08;;;;;;;10.45;4.25;;;;;;;;;;5058163;28;20052;-83
2023/08/12 00:55:34;;;;;;;7.97;3.70;;;;;;;;;;5074628;28;20139;-84
2023/08/12 00:58:01;;;;;;;7.03;3.53;;;;;;;;;;5074140;28;20221;-84
2023/08/12 01:00:27;;;;;;;8.13;3.72;;;;;;;;;;5092242;28;20048;-84
2023/08/12 01:02:54;;;;;;;6.53;3.75;;;;;;;;;;5104180;28;20051;-83
2023/08/12 01:05:20;;;;;;;9.48;4.28;;;;;;;;;;5087267;28;20116;-84
2023/08/12 01:07:46;;;;;;;6.75;3.67;;;;;;;;;;5093804;28;20082;-83
2023/08/12 01:10:16;;;;;;;7.10;3.80;;;;;;;;;;5096615;28;20447;-84
2023/08/12 01:12:50;;;;;;;7.95;3.83;;;;;;;;;;5098720;28;20055;-83
2023/08/12 01:15:23;;;;;;;7.18;3.60;;;;;;;;;;5114302;28;20054;-83
2023/08/12 01:17:52;;;;;;;7.25;3.60;;;;;;;;;;5093192;28;20434;-83
2023/08/12 01:20:24;;;;;;;5.18;3.67;;;;;;;;;;5061089;28;20036;-83
2023/08/12 01:22:53;;;;;;;7.50;3.85;;;;;;;;;;5094431;28;20044;-82
2023/08/12 01:25:19;;;;;;;8.98;4.15;;;;;;;;;;5094119;28;20464;-83
2023/08/12 01:27:45;;;;;;;9.13;4.43;;;;;;;;;;5081122;28;20035;-83
2023/08/12 01:30:11;;;;;;;8.52;4.70;;;;;;;;;;5094418;28;20131;-83
2023/08/12 01:32:40;;;;;;;9.00;4.70;;;;;;;;;;5096456;28;20055;-83
2023/08/12 01:35:13;;;;;;;7.60;4.70;;;;;;;;;;5111740;28;20044;-83
2023/08/12 01:37:39;;;;;;;8.88;4.47;;;;;;;;;;5081344;28;20381;-83
2023/08/12 01:40:08;;;;;;;11.15;5.13;;;;;;;;;;5092178;28;21621;-83
2023/08/12 01:42:35;;;;;;;12.27;5.35;;;;;;;;;;5078512;28;20046;-83
2023/08/12 01:45:01;;;;;;;9.57;5.18;;;;;;;;;;5109318;28;20055;-84
2023/08/12 01:47:28;;;;;;;11.40;5.18;;;;;;;;;;5082731;28;20538;-83
2023/08/12 01:49:54;;;;;;;10.38;5.65;;;;;;;;;;5061294;28;20140;-83
2023/08/12 01:52:20;;;;;;;12.13;5.53;;;;;;;;;;5108537;28;20044;-84
2023/08/12 01:54:46;;;;;;;8.20;5.57;;;;;;;;;;5085544;28;20051;-83
2023/08/12 01:57:12;;;;;;;11.05;5.60;;;;;;;;;;5090166;28;20476;-84
2023/08/12 01:59:38;;;;;;;8.90;5.43;;;;;;;;;;5116328;28;20050;-83
2023/08/12 02:02:05;;;;;;;9.73;5.63;;;;;;;;;;5097825;28;20063;-84
2023/08/12 02:04:31;;;;;;;12.27;5.75;;;;;;;;;;5097482;28;20035;-84
2023/08/12 02:06:57;;;;;;;10.15;5.75;;;;;;;;;;5093969;28;20425;-83
2023/08/12 02:09:24;;;;;;;11.23;6.05;;;;;;;;;;5096226;28;20040;-84
2023/08/12 02:11:50;;;;;;;9.55;5.88;;;;;;;;;;5089889;28;20225;-84
2023/08/12 02:14:16;;;;;;;11.75;6.00;;;;;;;;;;5077168;28;20476;-83
2023/08/12 02:16:42;;;;;;;10.77;6.05;;;;;;;;;;5101692;28;20043;-83
2023/08/12 02:19:09;;;;;;;10.77;5.93;;;;;;;;;;5096341;28;20400;-84
2023/08/12 02:21:35;;;;;;;11.23;5.90;;;;;;;;;;5095646;28;20048;-84
2023/08/12 02:24:01;;;;;;;10.15;6.00;;;;;;;;;;5097971;28;20442;-84
2023/08/12 02:26:27;;;;;;;12.07;6.22;;;;;;;;;;5108747;28;20131;-84
2023/08/12 02:28:53;;;;;;;12.57;5.82;;;;;;;;;;5076939;28;20143;-84
2023/08/12 02:31:19;;;;;;;10.98;6.20;;;;;;;;;;5076339;28;20044;-84
2023/08/12 02:33:45;;;;;;;11.20;6.28;;;;;;;;;;5078411;28;20040;-84
2023/08/12 02:36:11;;;;;;;10.10;6.15;;;;;;;;;;5080129;28;20090;-83
2023/08/12 02:38:37;;;;;;;12.65;5.97;;;;;;;;;;5097971;28;20047;-82
2023/08/12 02:41:04;;;;;;;11.18;6.57;;;;;;;;;;5081339;28;20047;-83
2023/08/12 02:43:30;;;;;;;10.82;6.28;;;;;;;;;;5060459;28;20079;-84
2023/08/12 02:45:56;;;;;;;11.82;6.90;;;;;;;;;;5084479;27;20042;-84
2023/08/12 02:48:22;;;;;;;11.13;7.13;;;;;;;;;;5096863;28;20054;-84
2023/08/12 02:50:48;;;;;;;13.18;7.10;;;;;;;;;;5096447;28;20070;-83
2023/08/12 02:53:15;;;;;;;12.50;7.28;;;;;;;;;;5089296;28;20088;-84
2023/08/12 02:55:42;;;;;;;12.25;7.40;;;;;;;;;;5060668;28;20032;-82
2023/08/12 02:58:08;;;;;;;11.88;7.13;;;;;;;;;;5087650;28;20054;-83
2023/08/12 03:00:34;;;;;;;13.98;7.18;;;;;;;;;;5076915;28;20455;-84
2023/08/12 03:03:00;;;;;;;12.63;7.20;;;;;;;;;;5075951;28;20446;-83
2023/08/12 03:05:26;;;;;;;11.48;7.60;;;;;;;;;;5099542;28;20071;-83
2023/08/12 03:07:52;;;;;;;11.68;7.55;;;;;;;;;;5095101;28;20043;-83
2023/08/12 03:10:18;;;;;;;13.15;7.30;;;;;;;;;;5059781;28;20122;-83
2023/08/12 03:12:45;;;;;;;11.90;7.50;;;;;;;;;;5076442;28;20044;-83
2023/08/12 03:15:11;;;;;;;11.15;7.50;;;;;;;;;;5059249;28;20117;-83
2023/08/12 03:17:41;;;;;;;14.50;7.72;;;;;;;;;;5059855;28;20056;-83
2023/08/12 03:20:08;;;;;;;12.75;7.43;;;;;;;;;;5094327;28;20524;-83
2023/08/12 03:22:36;;;;;;;15.10;8.43;;;;;;;;;;5094921;28;20044;-82
2023/08/12 03:25:02;;;;;;;11.75;8.30;;;;;;;;;;5077154;28;20048;-83
2023/08/12 03:27:28;;;;;;;14.52;8.27;;;;;;;;;;5076095;28;20489;-83
2023/08/12 03:29:54;;;;;;;11.07;8.18;;;;;;;;;;5075888;28;20050;-83
2023/08/12 03:32:20;;;;;;;13.60;8.45;;;;;;;;;;5096025;28;20056;-83
2023/08/12 03:34:46;;;;;;;16.55;8.27;;;;;;;;;;5076686;28;20503;-83
2023/08/12 03:37:12;;;;;;;12.23;8.30;;;;;;;;;;5073832;28;20079;-83
2023/08/12 03:39:38;;;;;;;12.50;8.32;;;;;;;;;;5058438;28;20093;-84
2023/08/12 03:42:05;;;;;;;13.65;8.75;;;;;;;;;;5093932;28;20044;-84
2023/08/12 03:44:32;;;;;;;12.68;8.48;;;;;;;;;;5090163;28;20142;-83
2023/08/12 03:46:58;;;;;;;14.20;8.40;;;;;;;;;;5085357;28;20036;-84
2023/08/12 03:49:24;;;;;;;15.15;9.07;;;;;;;;;;5075153;28;20082;-83
2023/08/12 03:51:50;;;;;;;13.90;9.00;;;;;;;;;;5104875;28;20056;-83
2023/08/12 03:54:16;;;;;;;14.48;8.82;;;;;;;;;;5095383;28;20092;-83
2023/08/12 03:56:42;;;;;;;12.73;8.55;;;;;;;;;;5093587;28;20055;-83
2023/08/12 03:59:08;;;;;;;14.55;8.73;;;;;;;;;;5077756;28;20089;-83
2023/08/12 04:01:35;;;;;;;13.32;8.90;;;;;;;;;;5075467;28;20040;-84
2023/08/12 04:04:01;;;;;;;12.90;8.48;;;;;;;;;;5060694;28;20088;-83
2023/08/12 04:06:27;;;;;;;12.95;8.70;;;;;;;;;;5088002;28;20077;-84
2023/08/12 04:08:53;;;;;;;15.45;8.50;;;;;;;;;;5095413;28;20092;-83
2023/08/12 04:11:19;;;;;;;14.18;8.82;;;;;;;;;;5111404;28;20126;-83
2023/08/12 04:13:45;;;;;;;13.63;9.32;;;;;;;;;;5093333;28;20040;-82
2023/08/12 04:16:11;;;;;;;16.60;9.75;;;;;;;;;;5084647;28;20476;-84
2023/08/12 04:18:37;;;;;;;14.48;9.77;;;;;;;;;;5075504;28;20404;-84
2023/08/12 04:21:04;;;;;;;15.18;9.52;;;;;;;;;;5083195;28;20448;-83
2023/08/12 04:23:30;;;;;;;16.73;10.13;;;;;;;;;;5092669;28;20051;-84
2023/08/12 04:25:56;;;;;;;14.48;10.00;;;;;;;;;;5071194;28;20485;-83
2023/08/12 04:28:22;;;;;;;17.05;9.80;;;;;;;;;;5074071;28;20051;-84
2023/08/12 04:30:50;;;;;;;15.48;10.27;;;;;;;;;;5077840;28;20093;-83
2023/08/12 04:33:17;;;;;;;14.85;10.32;;;;;;;;;;5073777;28;20323;-83
2023/08/12 04:35:43;;;;;;;17.75;10.45;;;;;;;;;;5057486;28;20501;-83
2023/08/12 04:38:09;;;;;;;20.08;10.30;;;;;;;;;;5093632;28;20040;-84
2023/08/12 04:40:39;;;;;;;17.83;10.38;;;;;;;;;;5089994;28;20052;-82
2023/08/12 04:43:05;;;;;;;15.52;10.55;;;;;;;;;;5067520;28;20528;-83
2023/08/12 04:45:32;;;;;;;19.15;11.48;;;;;;;;;;5082891;28;20146;-84
2023/08/12 04:47:59;;;;;;;15.80;10.68;;;;;;;;;;5075527;28;20055;-84
2023/08/12 04:50:25;;;;;;;16.30;10.95;;;;;;;;;;5090707;28;20045;-84
2023/08/12 04:52:51;;;;;;;15.93;10.93;;;;;;;;;;5089504;28;20045;-84
2023/08/12 04:55:18;;;;;;;17.60;10.32;;;;;;;;;;5090036;28;20071;-84
2023/08/12 04:57:44;;;;;;;13.57;9.75;;;;;;;;;;5096614;28;20044;-82
2023/08/12 05:00:10;;;;;;;17.55;10.02;;;;;;;;;;5076537;28;20045;-84
2023/08/12 05:02:36;;;;;;;16.00;9.40;;;;;;;;;;5082135;28;20040;-83
2023/08/12 05:05:03;;;;;;;16.48;9.48;;;;;;;;;;5092691;28;20078;-83
2023/08/12 05:07:31;;;;;;;13.20;9.30;;;;;;;;;;5093531;28;20404;-83
2023/08/12 05:09:57;;;;;;;16.63;9.15;;;;;;;;;;5095029;28;20036;-83
2023/08/12 05:12:23;;;;;;;15.57;9.40;;;;;;;;;;5097680;28;20046;-83
2023/08/12 05:14:49;;;;;;;15.40;9.77;;;;;;;;;;5095208;28;20040;-83
2023/08/12 05:17:15;;;;;;;15.32;9.32;;;;;;;;;;5095331;28;20412;-83
2023/08/12 05:19:41;;;;;;;15.82;8.98;;;;;;;;;;5095791;28;20051;-84
2023/08/12 05:22:07;;;;;;;15.23;9.25;;;;;;;;;;5092169;28;20395;-83
2023/08/12 05:24:33;;;;;;;14.13;8.85;;;;;;;;;;5095655;28;20131;-83
2023/08/12 05:27:00;;;;;;;14.35;8.73;;;;;;;;;;5069442;28;20052;-83
2023/08/12 05:29:26;;;;;;;16.90;9.02;;;;;;;;;;5094379;28;20031;-83
2023/08/12 05:31:52;;;;;;;17.25;9.48;;;;;;;;;;5082019;28;20154;-83
2023/08/12 05:34:18;;;;;;;14.30;8.88;;;;;;;;;;5114535;28;20043;-83
2023/08/12 05:36:44;;;;;;;12.68;8.63;;;;;;;;;;5081339;28;20051;-84
2023/08/12 05:39:15;;;;;;;16.13;9.02;;;;;;;;;;5077573;28;20036;-84
2023/08/12 05:41:41;;;;;;;11.98;8.45;;;;;;;;;;5098273;28;20059;-83
2023/08/12 05:44:07;;;;;;;14.85;9.02;;;;;;;;;;5067816;28;20051;-83
2023/08/12 05:46:33;;;;;;;12.90;8.25;;;;;;;;;;5094765;28;20050;-83
2023/08/12 05:48:59;;;;;;;13.10;8.50;;;;;;;;;;5096464;28;20040;-84
2023/08/12 05:51:26;;;;;;;14.15;9.35;;;;;;;;;;5075621;28;20442;-84
2023/08/12 05:53:54;;;;;;;15.93;9.23;;;;;;;;;;5074673;28;20036;-83
2023/08/12 05:56:20;;;;;;;15.32;9.43;;;;;;;;;;5110530;28;20373;-83
2023/08/12 05:58:47;;;;;;;15.25;9.30;;;;;;;;;;5062921;28;20523;-83
2023/08/12 06:01:13;;;;;;;17.52;9.20;;;;;;;;;;5078539;28;20124;-83
2023/08/12 06:03:39;;;;;;;14.80;8.88;;;;;;;;;;5075098;28;20234;-83
2023/08/12 06:06:05;;;;;;;14.48;9.10;;;;;;;;;;5077566;28;20495;-83
2023/08/12 06:08:31;;;;;;;17.67;8.85;;;;;;;;;;5108421;28;20417;-83
2023/08/12 06:10:57;;;;;;;13.65;8.98;;;;;;;;;;5114333;28;20035;-83
2023/08/12 06:13:23;;;;;;;12.45;8.90;;;;;;;;;;5097605;28;20127;-84
2023/08/12 06:15:49;;;;;;;16.70;9.15;;;;;;;;;;5090091;28;20047;-84
2023/08/12 06:18:16;;;;;;;14.68;9.15;;;;;;;;;;5115454;28;20047;-84
2023/08/12 06:20:42;;;;;;;16.00;9.15;;;;;;;;;;5095106;28;20042;-75
2023/08/12 06:23:08;;;;;;;19.55;9.90;;;;;;;;;;5098898;28;20056;-76
2023/08/12 06:25:36;;;;;;;17.25;10.23;;;;;;;;;;5104741;28;20052;-74
2023/08/12 06:28:04;;;;;;;17.42;9.98;;;;;;;;;;5094732;28;20048;-79
2023/08/12 06:30:30;;;;;;;14.30;9.15;;;;;;;;;;5094830;28;20044;-80
2023/08/12 06:32:56;;;;;;;16.33;9.57;;;;;;;;;;5095272;28;20044;-80
2023/08/12 06:35:23;;;;;;;17.73;10.30;;;;;;;;;;5093730;28;20366;-80
2023/08/12 06:37:49;;;;;;;14.88;9.27;;;;;;;;;;5095108;28;20066;-79
2023/08/12 06:40:15;;;;;;;19.63;9.63;;;;;;;;;;5094903;28;20105;-80
2023/08/12 06:42:41;;;;;;;17.95;10.18;;;;;;;;;;5094612;28;20132;-80
2023/08/12 06:45:07;;;;;;;16.15;9.43;;;;;;;;;;5091337;28;20046;-80
2023/08/12 06:47:33;;;;;;;13.70;9.40;;;;;;;;;;5095055;28;20086;-80
2023/08/12 06:49:59;;;;;;;15.55;9.48;;;;;;;;;;5094706;28;20082;-80
2023/08/12 06:52:26;;;;;;;15.98;9.90;;;;;;;;;;5095045;28;20048;-80
2023/08/12 06:54:52;;;;;;;14.00;9.93;;;;;;;;;;5077032;28;20131;-80
2023/08/12 06:57:18;;;;;;;16.05;9.98;;;;;;;;;;5094744;28;20083;-79
2023/08/12 06:59:44;;;;;;;17.17;10.25;;;;;;;;;;5094637;28;20036;-78
2023/08/12 07:02:10;;;;;;;17.60;10.10;;;;;;;;;;5076427;28;20051;-80
2023/08/12 07:04:36;;;;;;;17.90;10.23;;;;;;;;;;5094112;28;20036;-79
2023/08/12 07:07:02;;;;;;;19.15;10.60;;;;;;;;;;5075859;28;20047;-79
2023/08/12 07:09:29;;;;;;;25.45;11.45;;;;;;;;;;5076160;28;20051;-79
2023/08/12 07:11:55;;;;;;;16.65;11.38;;;;;;;;;;5076139;28;20424;-79
2023/08/12 07:14:21;;;;;;;19.23;11.45;;;;;;;;;;5076130;28;20044;-78
2023/08/12 07:16:47;;;;;;;16.65;11.25;;;;;;;;;;5102044;28;20039;-79
2023/08/12 07:19:14;;;;;;;19.13;11.23;;;;;;;;;;5114719;28;20044;-79
2023/08/12 07:21:40;;;;;;;17.80;10.90;;;;;;;;;;5084216;28;20048;-79
2023/08/12 07:24:06;;;;;;;16.52;11.85;;;;;;;;;;5094418;28;20036;-77
2023/08/12 07:26:32;;;;;;;17.27;12.02;;;;;;;;;;5102743;28;20040;-78
2023/08/12 07:28:59;;;;;;;19.92;11.93;;;;;;;;;;5106808;28;20105;-80
2023/08/12 07:31:25;;;;;;;17.92;11.50;;;;;;;;;;5095501;28;20393;-79
2023/08/12 07:33:51;;;;;;;22.75;13.63;;;;;;;;;;5076569;28;20048;-80
2023/08/12 07:36:17;;;;;;;25.00;12.23;;;;;;;;;;5093277;28;20047;-79
2023/08/12 07:38:43;;;;;;;23.02;13.15;;;;;;;;;;5094058;28;20059;-80
2023/08/12 07:41:09;;;;;;;25.30;12.85;;;;;;;;;;5075180;28;20131;-80
2023/08/12 07:43:35;;;;;;;20.80;12.68;;;;;;;;;;5078332;28;20392;-80
2023/08/12 07:46:01;;;;;;;19.65;13.07;;;;;;;;;;5108188;28;20043;-81
2023/08/12 07:48:27;;;;;;;21.77;12.65;;;;;;;;;;5112808;28;20076;-81
2023/08/12 07:50:57;;;;;;;22.33;13.50;;;;;;;;;;5093444;28;20130;-80
2023/08/12 07:53:23;;;;;;;19.90;13.18;;;;;;;;;;5093654;28;20131;-80
2023/08/12 07:55:50;;;;;;;22.48;14.52;;;;;;;;;;5093372;28;20048;-81
2023/08/12 07:58:16;;;;;;;25.50;14.88;;;;;;;;;;5093598;28;20055;-81
2023/08/12 08:00:42;;;;;;;22.02;13.73;;;;;;;;;;5103520;28;20118;-79
2023/08/12 08:03:08;;;;;;;21.80;13.93;;;;;;;;;;5082904;28;20130;-79
2023/08/12 08:05:34;;;;;;;22.50;13.93;;;;;;;;;;5111119;28;20050;-79
2023/08/12 08:08:00;;;;;;;23.25;13.90;;;;;;;;;;5094634;28;20074;-79
2023/08/12 08:10:26;;;;;;;20.98;14.93;;;;;;;;;;5092698;28;20136;-79
2023/08/12 08:12:53;;;;;;;22.08;15.38;;;;;;;;;;5093257;28;20480;-79
2023/08/12 08:15:19;;;;;;;24.33;14.65;;;;;;;;;;5097389;28;20081;-80
2023/08/12 08:17:45;;;;;;;24.38;15.13;;;;;;;;;;5113662;28;20507;-80
2023/08/12 08:20:11;;;;;;;22.08;14.73;;;;;;;;;;5105514;28;20119;-79
2023/08/12 08:22:37;;;;;;;22.40;14.13;;;;;;;;;;5093227;28;20051;-80
2023/08/12 08:25:04;;;;;;;22.92;15.48;;;;;;;;;;5093113;28;20048;-79
2023/08/12 08:27:31;;;;;;;24.92;15.70;;;;;;;;;;5093118;28;20052;-80
2023/08/12 08:29:57;;;;;;;23.52;15.10;;;;;;;;;;5092874;28;20055;-79
2023/08/12 08:32:24;;;;;;;26.92;15.98;;;;;;;;;;5100637;28;20526;-80
2023/08/12 08:34:50;;;;;;;23.98;16.08;;;;;;;;;;5112790;28;20039;-80
2023/08/12 08:37:16;;;;;;;28.92;15.85;;;;;;;;;;5097065;28;20101;-76
2023/08/12 08:39:42;;;;;;;25.98;16.17;;;;;;;;;;5131605;28;20044;-76
2023/08/12 08:42:10;;;;;;;25.42;15.43;;;;;;;;;;5128596;28;20039;-80
2023/08/12 08:44:38;;;;;;;24.25;15.57;;;;;;;;;;5113909;28;20074;-83
2023/08/12 08:47:05;;;;;;;26.83;16.02;;;;;;;;;;5104262;28;20040;-79
2023/08/12 08:49:31;;;;;;;21.02;15.05;;;;;;;;;;5113181;28;20047;-78
2023/08/12 08:51:59;;;;;;;19.20;15.02;;;;;;;;;;5104945;28;20040;-79
2023/08/12 08:54:26;;;;;;;21.85;14.75;;;;;;;;;;5100653;28;20040;-81
2023/08/12 08:56:52;;;;;;;21.38;14.13;;;;;;;;;;5087444;28;20047;-83
2023/08/12 08:59:21;;;;;;;24.80;15.48;;;;;;;;;;5063405;28;20506;-84
2023/08/12 09:01:47;;;;;;;21.02;14.80;;;;;;;;;;5112589;28;20043;-83
2023/08/12 09:04:16;;;;;;;25.30;15.95;;;;;;;;;;5109426;28;20115;-82
2023/08/12 09:06:42;;;;;;;21.77;14.18;;;;;;;;;;5095159;28;20050;-80
2023/08/12 09:09:13;;;;;;;24.17;16.02;;;;;;;;;;5112792;28;20054;-82
2023/08/12 09:11:40;;;;;;;24.55;16.38;;;;;;;;;;5080419;28;20078;-83
2023/08/12 09:14:06;;;;;;;24.00;16.65;;;;;;;;;;5109412;28;20050;-80
2023/08/12 09:16:33;;;;;;;27.35;16.83;;;;;;;;;;5116466;28;20395;-80
2023/08/12 09:19:04;;;;;;;23.73;16.70;;;;;;;;;;5113239;28;20446;-80
2023/08/12 09:21:30;;;;;;;26.00;17.38;;;;;;;;;;5102913;28;20044;-80
2023/08/12 09:23:57;;;;;;;25.50;17.25;;;;;;;;;;5104419;28;20366;-80
2023/08/12 09:26:24;;;;;;;26.67;18.48;;;;;;;;;;5109103;28;20134;-80
2023/08/12 09:28:50;;;;;;;26.10;18.10;;;;;;;;;;5107383;28;20074;-80
2023/08/12 09:31:24;;;;;;;32.70;19.15;;;;;;;;;;5090839;28;20051;-79
2023/08/12 09:33:50;;;;;;;32.53;20.33;;;;;;;;;;5097225;28;20054;-78
2023/08/12 09:36:17;;;;;;;30.48;20.05;;;;;;;;;;5112133;28;20075;-79
2023/08/12 09:38:43;;;;;;;29.83;20.02;;;;;;;;;;5112601;28;20044;-81
2023/08/12 09:41:10;;;;;;;31.20;20.75;;;;;;;;;;5108846;28;20490;-80
2023/08/12 09:43:40;;;;;;;27.75;18.77;;;;;;;;;;5074624;28;20127;-82
2023/08/12 09:46:06;;;;;;;29.15;18.80;;;;;;;;;;5099912;28;20085;-80
2023/08/12 09:48:32;;;;;;;27.55;18.98;;;;;;;;;;5087057;28;20075;-81
2023/08/12 09:50:58;;;;;;;27.35;17.90;;;;;;;;;;5082990;28;20050;-81
2023/08/12 09:53:25;;;;;;;25.67;18.20;;;;;;;;;;5114194;28;20044;-80
2023/08/12 09:55:52;;;;;;;24.17;17.75;;;;;;;;;;5083574;28;20046;-80
2023/08/12 09:58:19;;;;;;;25.13;18.33;;;;;;;;;;5080999;28;20069;-81
2023/08/12 10:00:46;;;;;;;24.02;18.58;;;;;;;;;;5083917;28;20459;-79
2023/08/12 10:03:14;;;;;;;22.83;18.02;;;;;;;;;;5111788;27;20377;-79
2023/08/12 10:05:40;;;;;;;26.55;18.88;;;;;;;;;;5102210;27;20040;-79
2023/08/12 10:08:07;;;;;;;26.10;19.55;;;;;;;;;;5095891;28;20036;-80
2023/08/12 10:10:35;;;;;;;29.08;19.85;;;;;;;;;;5095073;28;20043;-79
2023/08/12 10:13:02;;;;;;;23.42;18.05;;;;;;;;;;5113091;28;20096;-80
2023/08/12 10:15:28;;;;;;;26.55;17.90;;;;;;;;;;5096875;28;20051;-79
2023/08/12 10:17:55;;;;;;;21.92;17.52;;;;;;;;;;5115643;28;20091;-79
2023/08/12 10:20:22;;;;;;;24.92;19.15;;;;;;;;;;5104873;28;20040;-79
2023/08/12 10:22:49;;;;;;;22.77;17.70;;;;;;;;;;5098623;28;20057;-79
2023/08/12 10:25:15;;;;;;;22.73;17.33;;;;;;;;;;5115408;28;20391;-79
2023/08/12 10:27:42;;;;;;;21.90;16.67;;;;;;;;;;5115601;28;20052;-79
2023/08/12 10:30:09;;;;;;;21.73;17.00;;;;;;;;;;5115166;28;20089;-78
2023/08/12 10:32:35;;;;;;;20.23;15.57;;;;;;;;;;5115416;28;20055;-78
2023/08/12 10:35:02;;;;;;;19.05;13.75;;;;;;;;;;5114536;28;20040;-79
2023/08/12 10:37:32;;;;;;;17.27;13.27;;;;;;;;;;5100434;28;20062;-78
2023/08/12 10:39:59;;;;;;;18.52;12.82;;;;;;;;;;5095612;28;20373;-82
2023/08/12 10:42:48;;;;;;;16.20;12.57;;;;;;;;;;5084782;28;20394;-82
2023/08/12 10:45:16;;;;;;;20.13;13.13;;;;;;;;;;5054700;28;20050;-83
2023/08/12 10:47:43;;;;;;;16.77;12.40;;;;;;;;;;5078593;28;20123;-82
2023/08/12 10:50:20;;;;;;;15.70;12.35;;;;;;;;;;5102272;28;20043;-82
2023/08/12 10:52:46;;;;;;;15.00;9.57;;;;;;;;;;5083667;28;20400;-82
2023/08/12 10:55:22;;;;;;;13.10;9.25;;;;;;;;;;5102168;28;20055;-85
2023/08/12 10:57:53;;;;;;;11.27;6.22;;;;;;;;;;5087360;28;20083;-84
2023/08/12 11:00:23;;;;;;;9.45;5.35;;;;;;;;;;5081333;28;20048;-83
2023/08/12 11:02:50;;;;;;;6.93;4.82;;;;;;;;;;5073728;28;20051;-82
2023/08/12 11:05:18;;;;;;;10.93;5.55;;;;;;;;;;5075634;28;20055;-85
2023/08/12 11:07:49;;;;;;;8.18;5.78;;;;;;;;;;5093339;28;20047;-82
2023/08/12 11:10:16;;;;;;;9.48;6.03;;;;;;;;;;5103901;28;20382;-83
2023/08/12 11:12:54;;;;;;;8.18;5.60;;;;;;;;;;5107019;28;20048;-82
2023/08/12 11:15:34;;;;;;;8.32;5.30;;;;;;;;;;5107211;28;20463;-83
2023/08/12 11:18:19;;;;;;;8.57;5.70;;;;;;;;;;5091412;28;20423;-85
2023/08/12 11:20:46;;;;;;;8.18;5.53;;;;;;;;;;5072980;28;20048;-84
2023/08/12 11:23:13;;;;;;;7.65;4.88;;;;;;;;;;5091313;28;20052;-83
2023/08/12 11:25:40;;;;;;;9.68;5.07;;;;;;;;;;5090013;28;20059;-83
2023/08/12 11:28:07;;;;;;;9.77;6.00;;;;;;;;;;5072432;28;20052;-83
2023/08/12 11:30:34;;;;;;;7.45;4.97;;;;;;;;;;5095858;28;20420;-82
2023/08/12 11:33:01;;;;;;;9.50;5.60;;;;;;;;;;5093201;28;20090;-82
2023/08/12 11:35:27;;;;;;;6.30;4.18;;;;;;;;;;5092789;28;20178;-83
2023/08/12 11:37:58;;;;;;;5.93;3.90;;;;;;;;;;5094110;28;20055;-82
2023/08/12 11:40:25;;;;;;;5.85;3.58;;;;;;;;;;5109588;28;20043;-79
2023/08/12 11:42:52;;;;;;;5.75;3.47;;;;;;;;;;5112617;28;20353;-80
2023/08/12 11:45:19;;;;;;;5.93;3.55;;;;;;;;;;5109435;28;20510;-79
2023/08/12 11:47:52;;;;;;;4.03;2.85;;;;;;;;;;5107064;27;20123;-80
2023/08/12 11:50:18;;;;;;;4.75;2.95;;;;;;;;;;5100483;28;20044;-78
2023/08/12 11:52:44;;;;;;;3.88;2.47;;;;;;;;;;5101347;27;20142;-78
2023/08/12 11:55:10;;;;;;;3.35;1.63;;;;;;;;;;5100709;27;20073;-80
2023/08/12 11:57:37;;;;;;;2.50;1.90;;;;;;;;;;5092669;28;20048;-79
2023/08/12 12:00:13;;;;;;;5.45;2.00;;;;;;;;;;5098103;28;20039;-79
2023/08/12 12:02:40;;;;;;;4.78;2.05;;;;;;;;;;5093946;28;20044;-79
2023/08/12 12:05:11;;;;;;;4.07;2.22;;;;;;;;;;5097659;28;20369;-79
2023/08/12 12:07:37;;;;;;;5.95;2.72;;;;;;;;;;5101397;28;20043;-79
2023/08/12 12:10:05;;;;;;;8.25;3.63;;;;;;;;;;5097961;28;20039;-80
2023/08/12 12:12:33;;;;;;;6.13;3.33;;;;;;;;;;5101631;28;20048;-80
2023/08/12 12:15:00;;;;;;;6.95;3.20;;;;;;;;;;5098931;28;20092;-79
2023/08/12 12:17:26;;;;;;;6.80;3.20;;;;;;;;;;5100860;28;20044;-80
2023/08/12 12:19:53;;;;;;;7.50;3.30;;;;;;;;;;5102715;28;20374;-78
2023/08/12 12:22:19;;;;;;;6.57;3.67;;;;;;;;;;5112483;27;20480;-78
2023/08/12 12:24:48;;;;;;;7.45;3.70;;;;;;;;;;5106104;28;20078;-80
2023/08/12 12:27:14;;;;;;;6.30;3.42;;;;;;;;;;5102657;28;20416;-79
2023/08/12 12:29:44;;;;;;;9.13;3.47;;;;;;;;;;5078362;28;20145;-80
2023/08/12 12:32:10;;;;;;;7.15;3.45;;;;;;;;;;5097256;28;20036;-79
2023/08/12 12:34:37;;;;;;;8.00;2.88;;;;;;;;;;5081050;28;20036;-79
2023/08/12 12:37:03;;;;;;;6.78;2.65;;;;;;;;;;5100640;28;20759;-81
2023/08/12 12:39:29;;;;;;;7.50;2.67;;;;;;;;;;5100885;28;20036;-80
2023/08/12 12:41:55;;;;;;;5.63;2.60;;;;;;;;;;5085194;28;20144;-81
2023/08/12 12:44:21;;;;;;;5.93;3.00;;;;;;;;;;5095002;28;20040;-79
2023/08/12 12:46:47;;;;;;;7.57;2.80;;;;;;;;;;5112774;28;20488;-79
2023/08/12 12:49:13;;;;;;;7.53;2.70;;;;;;;;;;5094990;28;20047;-78
2023/08/12 12:51:40;;;;;;;7.57;3.00;;;;;;;;;;5112823;28;20051;-80
2023/08/12 12:54:06;;;;;;;6.72;2.63;;;;;;;;;;5113501;28;20079;-81
2023/08/12 12:56:32;;;;;;;7.28;3.08;;;;;;;;;;5113014;28;20123;-81
2023/08/12 12:58:58;;;;;;;6.38;2.78;;;;;;;;;;5095396;28;20399;-78
2023/08/12 13:01:24;;;;;;;6.18;2.97;;;;;;;;;;5093650;28;20089;-80
2023/08/12 13:03:50;;;;;;;9.38;3.30;;;;;;;;;;5092295;28;20044;-80
2023/08/12 13:06:16;;;;;;;8.85;3.05;;;;;;;;;;5093623;28;20035;-80
2023/08/12 13:08:42;;;;;;;6.93;2.92;;;;;;;;;;5113081;28;20484;-79
2023/08/12 13:11:08;;;;;;;7.88;3.00;;;;;;;;;;5113201;28;20045;-79
2023/08/12 13:13:34;;;;;;;7.05;2.60;;;;;;;;;;5094982;28;20043;-78
2023/08/12 13:16:01;;;;;;;6.40;2.60;;;;;;;;;;5087156;28;20048;-79
2023/08/12 13:18:27;;;;;;;7.38;2.70;;;;;;;;;;5099087;28;20044;-79
2023/08/12 13:20:53;;;;;;;7.22;2.80;;;;;;;;;;5087693;28;20036;-81
2023/08/12 13:23:19;;;;;;;10.10;2.88;;;;;;;;;;5101188;28;20047;-81
2023/08/12 13:25:46;;;;;;;8.35;2.80;;;;;;;;;;5110951;28;20047;-81
2023/08/12 13:28:12;;;;;;;7.43;2.70;;;;;;;;;;5096026;28;20483;-82
2023/08/12 13:30:38;;;;;;;7.60;2.80;;;;;;;;;;5093166;28;20063;-78
2023/08/12 13:33:04;;;;;;;8.85;3.10;;;;;;;;;;5116655;28;20416;-79
2023/08/12 13:35:31;;;;;;;8.15;3.00;;;;;;;;;;5115667;28;20122;-78
2023/08/12 13:37:57;;;;;;;7.30;2.90;;;;;;;;;;5108637;28;20044;-79
2023/08/12 13:40:23;;;;;;;8.50;2.80;;;;;;;;;;5104288;28;20040;-79
2023/08/12 13:42:50;;;;;;;9.73;3.00;;;;;;;;;;5099244;28;20055;-79
2023/08/12 13:45:16;;;;;;;8.25;3.17;;;;;;;;;;5085890;28;20518;-79
2023/08/12 13:47:42;;;;;;;10.55;3.42;;;;;;;;;;5106443;27;20040;-79
2023/08/12 13:50:09;;;;;;;10.95;3.10;;;;;;;;;;5095681;28;20065;-79
2023/08/12 13:52:35;;;;;;;8.57;3.00;;;;;;;;;;5113341;28;20044;-77
2023/08/12 13:55:03;;;;;;;7.53;2.92;;;;;;;;;;5115607;28;20043;-79
2023/08/12 13:57:29;;;;;;;8.57;3.10;;;;;;;;;;5115622;28;20098;-79
2023/08/12 13:59:55;;;;;;;10.45;2.92;;;;;;;;;;5115792;28;20075;-79
2023/08/12 14:02:22;;;;;;;8.30;2.92;;;;;;;;;;5113864;28;20044;-78
2023/08/12 14:04:49;;;;;;;14.43;3.80;;;;;;;;;;5115109;28;20039;-79
2023/08/12 14:07:15;;;;;;;8.98;2.88;;;;;;;;;;5115474;28;20059;-79
2023/08/12 14:09:41;;;;;;;9.20;3.25;;;;;;;;;;5108685;28;20040;-82
2023/08/12 14:12:08;;;;;;;6.13;2.67;;;;;;;;;;5090416;28;20536;-82
2023/08/12 14:14:34;;;;;;;9.15;2.85;;;;;;;;;;5094831;28;20039;-83
2023/08/12 14:17:00;;;;;;;10.25;2.63;;;;;;;;;;5094664;28;20067;-82
2023/08/12 14:19:26;;;;;;;6.97;2.35;;;;;;;;;;5117170;28;20055;-83
2023/08/12 14:21:52;;;;;;;8.48;2.55;;;;;;;;;;5096927;28;20697;-83
2023/08/12 14:24:18;;;;;;;10.10;2.55;;;;;;;;;;5097354;28;20376;-83
2023/08/12 14:26:44;;;;;;;9.90;2.53;;;;;;;;;;5092363;28;20048;-83
2023/08/12 14:29:10;;;;;;;10.75;2.30;;;;;;;;;;5092796;28;20044;-83